Time;durP1;ratioP1;P1;durP2;ratioP2;P2;SDS_P1;SDS_P2;PMS_P1;PMS_P2;Temp;Humidity;BMP_temperature;BMP_pressure;BME280_temperature;BME280_humidity;BME280_pressure;Samples;Min_cycle;Max_cycle;Signal;HPM_P1;HPM_P2
2021/08/14 00:00:44;;;;;;;12.98;11.55;;;22.00;75.90;;;;;;5009494;28;20185;-79
2021/08/14 00:03:10;;;;;;;12.73;11.43;;;21.90;75.80;;;;;;5113051;28;20183;-79
2021/08/14 00:05:40;;;;;;;13.25;11.80;;;22.00;76.00;;;;;;5044542;28;20159;-79
2021/08/14 00:08:06;;;;;;;13.02;11.73;;;22.00;76.00;;;;;;5095496;28;20178;-79
2021/08/14 00:10:33;;;;;;;12.88;11.50;;;22.00;76.00;;;;;;5043344;28;20191;-79
2021/08/14 00:13:00;;;;;;;13.18;11.57;;;21.90;75.90;;;;;;5042966;28;20233;-79
2021/08/14 00:15:26;;;;;;;13.25;11.70;;;22.00;76.00;;;;;;5043459;28;20257;-79
2021/08/14 00:17:54;;;;;;;12.88;11.57;;;22.00;76.00;;;;;;5045004;28;20159;-79
2021/08/14 00:20:21;;;;;;;12.30;11.00;;;21.90;76.00;;;;;;5113247;28;20538;-79
2021/08/14 00:22:51;;;;;;;13.13;11.82;;;21.90;76.00;;;;;;5026599;28;20186;-80
2021/08/14 00:25:20;;;;;;;13.10;11.43;;;21.90;76.00;;;;;;5079312;28;20224;-79
2021/08/14 00:27:48;;;;;;;14.07;12.55;;;22.00;76.10;;;;;;5112490;28;20182;-79
2021/08/14 00:30:17;;;;;;;12.82;11.52;;;22.00;76.00;;;;;;5096074;28;20223;-79
2021/08/14 00:32:51;;;;;;;13.27;11.88;;;22.00;76.00;;;;;;5096003;28;20246;-79
2021/08/14 00:35:21;;;;;;;14.43;12.20;;;21.90;75.80;;;;;;5094415;28;20190;-79
2021/08/14 00:37:48;;;;;;;13.80;11.90;;;22.00;75.90;;;;;;5096055;28;20246;-79
2021/08/14 00:40:18;;;;;;;12.68;11.38;;;22.00;75.90;;;;;;5112792;28;20649;-79
2021/08/14 00:42:49;;;;;;;13.43;12.02;;;21.90;75.80;;;;;;5095273;28;20174;-79
2021/08/14 00:45:16;;;;;;;12.73;11.43;;;22.00;75.80;;;;;;5112613;28;20270;-79
2021/08/14 00:47:46;;;;;;;13.48;12.07;;;22.00;75.90;;;;;;5112038;28;20187;-80
2021/08/14 00:50:12;;;;;;;13.57;12.13;;;21.90;75.80;;;;;;5112579;28;20251;-79
2021/08/14 00:52:39;;;;;;;13.40;12.00;;;21.90;76.00;;;;;;5043019;28;20151;-80
2021/08/14 00:55:06;;;;;;;12.75;11.43;;;21.90;75.80;;;;;;5043952;28;20155;-80
2021/08/14 00:57:36;;;;;;;13.48;12.05;;;21.90;75.80;;;;;;5043847;28;20167;-80
2021/08/14 01:00:06;;;;;;;12.85;11.50;;;21.90;75.80;;;;;;5111897;28;20225;-80
2021/08/14 01:02:33;;;;;;;13.25;11.85;;;21.90;75.80;;;;;;5111763;28;20204;-79
2021/08/14 01:05:03;;;;;;;12.65;11.23;;;21.90;75.80;;;;;;5043420;28;20217;-81
2021/08/14 01:07:29;;;;;;;13.10;11.15;;;21.90;75.80;;;;;;5094020;28;20191;-79
2021/08/14 01:09:59;;;;;;;13.63;12.23;;;21.90;75.80;;;;;;5043762;28;20205;-79
2021/08/14 01:12:25;;;;;;;13.15;11.75;;;21.90;75.90;;;;;;5110364;28;20355;-79
2021/08/14 01:14:50;;;;;;;12.40;11.10;;;21.90;75.80;;;;;;5041965;28;20575;-79
2021/08/14 01:17:21;;;;;;;12.18;10.93;;;21.90;75.80;;;;;;5010047;28;20186;-79
2021/08/14 01:19:51;;;;;;;13.18;11.77;;;21.90;75.80;;;;;;5009345;28;20191;-79
2021/08/14 01:22:21;;;;;;;12.82;11.52;;;21.90;75.90;;;;;;5077722;28;20183;-79
2021/08/14 01:24:48;;;;;;;13.63;12.23;;;21.90;75.80;;;;;;5110937;28;20182;-80
2021/08/14 01:27:18;;;;;;;13.02;11.52;;;21.90;76.00;;;;;;5094523;28;20634;-79
2021/08/14 01:29:48;;;;;;;13.57;12.18;;;21.90;75.80;;;;;;5094119;28;20226;-79
2021/08/14 01:32:15;;;;;;;12.52;11.23;;;21.90;75.80;;;;;;5094001;28;20207;-79
2021/08/14 01:34:47;;;;;;;13.02;11.63;;;22.00;76.70;;;;;;5110567;28;20692;-80
2021/08/14 01:37:23;;;;;;;13.10;11.70;;;21.90;75.80;;;;;;5026325;28;20299;-79
2021/08/14 01:39:50;;;;;;;14.90;12.50;;;21.90;75.80;;;;;;5094426;28;20193;-80
2021/08/14 01:42:18;;;;;;;13.10;11.80;;;21.90;75.90;;;;;;5093480;28;20241;-80
2021/08/14 01:44:48;;;;;;;12.88;11.43;;;22.00;75.90;;;;;;5042203;28;20175;-80
2021/08/14 01:47:18;;;;;;;12.73;11.38;;;21.90;75.80;;;;;;5093640;28;20183;-79
2021/08/14 01:49:48;;;;;;;13.50;11.95;;;21.90;75.80;;;;;;5110457;28;20222;-80
2021/08/14 01:52:23;;;;;;;12.38;11.02;;;21.90;75.90;;;;;;5025110;28;20187;-81
2021/08/14 01:54:51;;;;;;;13.63;12.10;;;21.90;75.80;;;;;;5092788;28;20192;-79
2021/08/14 01:57:22;;;;;;;13.90;12.02;;;21.90;75.80;;;;;;5076024;28;20246;-80
2021/08/14 01:59:50;;;;;;;13.93;12.38;;;21.90;75.70;;;;;;5076287;28;20629;-80
2021/08/14 02:02:20;;;;;;;13.95;12.20;;;21.90;75.70;;;;;;5024490;28;20190;-80
2021/08/14 02:04:51;;;;;;;13.32;11.93;;;21.90;75.70;;;;;;5110426;28;20190;-79
2021/08/14 02:07:19;;;;;;;13.90;12.13;;;21.90;75.70;;;;;;5110016;28;20197;-81
2021/08/14 02:09:51;;;;;;;13.23;11.82;;;21.80;75.70;;;;;;5092532;28;20218;-80
2021/08/14 02:12:17;;;;;;;12.95;11.45;;;21.90;75.60;;;;;;5092228;28;20222;-80
2021/08/14 02:14:44;;;;;;;12.85;11.55;;;21.90;75.70;;;;;;5042051;28;20192;-81
2021/08/14 02:17:12;;;;;;;12.50;11.02;;;21.90;75.70;;;;;;5075984;28;20277;-80
2021/08/14 02:19:39;;;;;;;12.55;11.20;;;21.90;75.80;;;;;;5109341;28;20179;-80
2021/08/14 02:22:06;;;;;;;13.65;12.07;;;21.90;75.80;;;;;;5091902;28;20302;-81
2021/08/14 02:24:37;;;;;;;12.75;11.45;;;21.90;75.80;;;;;;5075506;28;20189;-81
2021/08/14 02:27:04;;;;;;;13.32;11.93;;;21.90;75.70;;;;;;5108774;28;20213;-80
2021/08/14 02:29:33;;;;;;;13.07;11.73;;;21.90;75.80;;;;;;5091844;28;20227;-80
2021/08/14 02:32:02;;;;;;;12.70;11.40;;;21.90;75.80;;;;;;5091546;28;20212;-81
2021/08/14 02:34:32;;;;;;;13.23;11.70;;;21.90;75.80;;;;;;5041479;28;20159;-81
2021/08/14 02:36:58;;;;;;;13.00;11.60;;;21.90;75.80;;;;;;5092155;28;20610;-80
2021/08/14 02:39:25;;;;;;;13.30;11.90;;;21.90;75.70;;;;;;5041660;28;20190;-81
2021/08/14 02:41:53;;;;;;;12.90;11.52;;;21.90;75.80;;;;;;5023555;28;20563;-80
2021/08/14 02:44:19;;;;;;;13.18;11.77;;;21.90;75.80;;;;;;5041479;28;20159;-81
2021/08/14 02:46:49;;;;;;;13.77;12.38;;;21.90;75.70;;;;;;5041198;28;20170;-80
2021/08/14 02:49:15;;;;;;;13.13;11.73;;;21.90;75.80;;;;;;5006912;28;20211;-81
2021/08/14 02:51:50;;;;;;;13.45;11.88;;;21.90;75.70;;;;;;5041430;28;20208;-80
2021/08/14 02:54:17;;;;;;;13.38;11.95;;;21.90;75.80;;;;;;5092602;28;20213;-81
2021/08/14 02:56:42;;;;;;;13.38;12.05;;;21.90;75.60;;;;;;5044703;28;20155;-82
2021/08/14 02:59:15;;;;;;;12.65;11.30;;;21.90;75.70;;;;;;5114866;28;20182;-81
2021/08/14 03:01:46;;;;;;;13.43;11.88;;;21.80;75.60;;;;;;5113045;28;20186;-82
2021/08/14 03:04:17;;;;;;;13.30;11.95;;;21.90;75.70;;;;;;5096368;28;20197;-81
2021/08/14 03:06:43;;;;;;;12.65;11.35;;;21.80;75.60;;;;;;5044428;28;20174;-80
2021/08/14 03:09:11;;;;;;;12.45;11.15;;;21.90;75.70;;;;;;5026769;28;20207;-80
2021/08/14 03:11:37;;;;;;;13.20;11.80;;;21.90;75.60;;;;;;5109467;28;20219;-81
2021/08/14 03:14:05;;;;;;;12.32;11.02;;;21.90;75.70;;;;;;5128953;28;20251;-82
2021/08/14 03:16:32;;;;;;;13.75;12.25;;;21.80;75.60;;;;;;5126288;28;20229;-80
2021/08/14 03:18:59;;;;;;;13.85;11.77;;;21.90;75.80;;;;;;5109280;28;20196;-81
2021/08/14 03:21:29;;;;;;;12.95;11.32;;;21.90;75.70;;;;;;5093115;28;20183;-80
2021/08/14 03:23:57;;;;;;;13.45;11.70;;;21.90;75.70;;;;;;5126728;28;20187;-80
2021/08/14 03:26:25;;;;;;;12.70;11.40;;;21.90;75.60;;;;;;5127708;28;20196;-80
2021/08/14 03:28:56;;;;;;;12.63;11.30;;;21.90;75.60;;;;;;5109810;28;20222;-80
2021/08/14 03:31:23;;;;;;;12.93;11.52;;;21.90;75.60;;;;;;5092594;28;20210;-80
2021/08/14 03:33:50;;;;;;;13.75;12.15;;;21.90;75.60;;;;;;5126804;28;20271;-82
2021/08/14 03:36:17;;;;;;;13.32;11.93;;;21.80;75.60;;;;;;5109276;28;20219;-81
2021/08/14 03:38:49;;;;;;;13.15;11.68;;;21.90;75.30;;;;;;5108885;28;20248;-81
2021/08/14 03:41:16;;;;;;;13.70;12.18;;;21.90;75.60;;;;;;5092211;28;20184;-81
2021/08/14 03:43:42;;;;;;;12.50;11.20;;;21.80;75.60;;;;;;5109364;28;20190;-81
2021/08/14 03:46:11;;;;;;;12.50;11.20;;;21.80;75.70;;;;;;5109683;28;20667;-80
2021/08/14 03:48:39;;;;;;;13.00;11.63;;;21.80;75.60;;;;;;5128343;28;20148;-80
2021/08/14 03:51:05;;;;;;;13.20;11.90;;;21.90;75.60;;;;;;5127043;28;20177;-80
2021/08/14 03:53:35;;;;;;;12.85;11.50;;;21.90;75.40;;;;;;5126686;28;20194;-81
2021/08/14 03:56:02;;;;;;;13.70;12.07;;;21.90;75.60;;;;;;5126108;28;20263;-80
2021/08/14 03:58:36;;;;;;;13.02;11.52;;;21.90;75.60;;;;;;5109353;28;20176;-80
2021/08/14 04:01:05;;;;;;;12.77;11.48;;;21.90;75.40;;;;;;5108401;28;20179;-81
2021/08/14 04:03:32;;;;;;;12.27;10.98;;;21.80;75.60;;;;;;5125961;28;20196;-81
2021/08/14 04:05:59;;;;;;;12.65;11.30;;;21.80;75.50;;;;;;5125095;28;20192;-81
2021/08/14 04:08:26;;;;;;;12.73;11.35;;;21.80;75.70;;;;;;5124908;28;20217;-81
2021/08/14 04:10:54;;;;;;;12.27;11.05;;;21.80;75.60;;;;;;5092026;28;20629;-80
2021/08/14 04:13:23;;;;;;;12.57;11.27;;;21.80;76.30;;;;;;5108591;28;20266;-82
2021/08/14 04:15:53;;;;;;;12.48;11.18;;;21.80;75.50;;;;;;5108526;28;20591;-81
2021/08/14 04:18:19;;;;;;;12.27;10.88;;;21.80;75.50;;;;;;5108017;28;20176;-80
2021/08/14 04:20:45;;;;;;;12.70;11.40;;;21.80;75.60;;;;;;5092165;28;20225;-81
2021/08/14 04:23:10;;;;;;;12.27;10.98;;;21.80;75.60;;;;;;5109068;28;20189;-81
2021/08/14 04:25:36;;;;;;;12.70;11.40;;;21.80;75.40;;;;;;5108190;28;20183;-82
2021/08/14 04:28:02;;;;;;;13.07;11.68;;;21.90;75.30;;;;;;5108042;28;20160;-82
2021/08/14 04:30:28;;;;;;;13.43;11.70;;;21.80;75.40;;;;;;5090055;28;20555;-81
2021/08/14 04:32:54;;;;;;;13.32;11.60;;;21.80;75.40;;;;;;5124305;28;20229;-81
2021/08/14 04:35:21;;;;;;;12.60;11.30;;;21.80;75.40;;;;;;5123198;28;20152;-82
2021/08/14 04:37:46;;;;;;;12.73;10.98;;;21.80;75.30;;;;;;5122324;28;20256;-81
2021/08/14 04:40:14;;;;;;;12.95;11.55;;;21.80;75.40;;;;;;5103970;28;20289;-82
2021/08/14 04:42:42;;;;;;;12.75;11.45;;;21.80;75.40;;;;;;5087224;28;20298;-81
2021/08/14 04:45:10;;;;;;;12.63;11.27;;;21.90;75.30;;;;;;5122200;28;20190;-81
2021/08/14 04:47:36;;;;;;;12.05;10.85;;;21.80;75.10;;;;;;5104056;28;20161;-81
2021/08/14 04:50:02;;;;;;;13.35;11.73;;;21.90;76.00;;;;;;5122301;28;20180;-82
2021/08/14 04:52:31;;;;;;;12.45;11.15;;;21.80;75.00;;;;;;5120500;28;20235;-81
2021/08/14 04:54:57;;;;;;;12.48;11.18;;;21.90;75.00;;;;;;5086382;28;20223;-81
2021/08/14 04:57:23;;;;;;;13.13;11.57;;;21.90;75.00;;;;;;5086762;28;20164;-82
2021/08/14 04:59:49;;;;;;;12.35;11.05;;;21.90;74.90;;;;;;5102988;28;20164;-81
2021/08/14 05:02:17;;;;;;;12.02;10.82;;;21.90;74.90;;;;;;5119347;28;20157;-82
2021/08/14 05:04:46;;;;;;;12.13;10.82;;;21.90;74.80;;;;;;5102667;28;20301;-81
2021/08/14 05:07:15;;;;;;;12.52;11.02;;;21.90;75.40;;;;;;5120308;28;20187;-83
2021/08/14 05:09:46;;;;;;;12.40;11.10;;;21.90;74.60;;;;;;5103395;28;20230;-81
2021/08/14 05:12:12;;;;;;;13.23;11.82;;;21.90;74.70;;;;;;5103374;28;20626;-81
2021/08/14 05:14:40;;;;;;;12.75;11.45;;;22.00;74.70;;;;;;5087338;28;20171;-81
2021/08/14 05:17:09;;;;;;;13.15;11.75;;;21.90;74.60;;;;;;5103439;28;20182;-81
2021/08/14 05:19:40;;;;;;;12.80;11.40;;;21.90;74.50;;;;;;5103784;28;20187;-81
2021/08/14 05:22:10;;;;;;;12.20;10.90;;;22.00;74.50;;;;;;5120869;28;20646;-81
2021/08/14 05:24:39;;;;;;;12.65;11.35;;;22.00;74.30;;;;;;5087054;28;20535;-81
2021/08/14 05:27:09;;;;;;;12.32;11.10;;;22.00;74.40;;;;;;5105251;28;20176;-80
2021/08/14 05:29:39;;;;;;;12.98;11.52;;;22.00;74.40;;;;;;5122072;28;20215;-81
2021/08/14 05:32:09;;;;;;;12.00;10.80;;;21.90;74.30;;;;;;5089215;28;20643;-81
2021/08/14 05:34:37;;;;;;;11.98;10.77;;;21.90;74.30;;;;;;5105155;28;20176;-82
2021/08/14 05:37:05;;;;;;;11.80;10.60;;;22.00;74.30;;;;;;5088302;28;20172;-80
2021/08/14 05:39:33;;;;;;;13.07;11.30;;;21.90;74.10;;;;;;5103990;28;20259;-81
2021/08/14 05:42:02;;;;;;;12.48;11.18;;;22.00;74.20;;;;;;5103740;28;20176;-83
2021/08/14 05:44:29;;;;;;;12.07;10.88;;;22.00;74.30;;;;;;5120539;28;20180;-81
2021/08/14 05:46:58;;;;;;;12.68;10.93;;;21.90;74.10;;;;;;5122349;28;20156;-81
2021/08/14 05:49:29;;;;;;;13.00;11.52;;;22.00;74.10;;;;;;5103276;28;20204;-82
2021/08/14 05:52:00;;;;;;;11.68;10.48;;;22.00;74.10;;;;;;5102555;28;20225;-82
2021/08/14 05:54:26;;;;;;;12.38;10.90;;;22.00;73.80;;;;;;5119384;28;20152;-82
2021/08/14 05:56:52;;;;;;;11.93;10.68;;;22.10;73.80;;;;;;5101860;28;20573;-82
2021/08/14 05:59:20;;;;;;;12.18;10.88;;;22.00;73.60;;;;;;5102520;28;20547;-81
2021/08/14 06:01:49;;;;;;;12.48;11.18;;;22.10;73.60;;;;;;5118330;28;20180;-81
2021/08/14 06:04:17;;;;;;;12.57;10.95;;;22.00;73.60;;;;;;5102009;28;20247;-81
2021/08/14 06:06:46;;;;;;;11.98;10.77;;;22.00;73.50;;;;;;5084075;28;20655;-81
2021/08/14 06:09:14;;;;;;;12.57;11.10;;;22.00;73.40;;;;;;5083971;28;20212;-83
2021/08/14 06:11:40;;;;;;;12.38;11.07;;;22.10;73.50;;;;;;5100353;28;20224;-80
2021/08/14 06:14:08;;;;;;;12.82;11.43;;;22.10;73.40;;;;;;5100406;28;20145;-82
2021/08/14 06:16:33;;;;;;;12.23;10.95;;;22.10;73.40;;;;;;5084050;28;20217;-81
2021/08/14 06:18:59;;;;;;;11.70;10.50;;;22.10;73.10;;;;;;5101825;28;20163;-81
2021/08/14 06:21:25;;;;;;;12.38;11.07;;;22.20;73.00;;;;;;5101436;28;20148;-82
2021/08/14 06:23:51;;;;;;;12.30;10.85;;;22.10;73.00;;;;;;5101709;28;20173;-81
2021/08/14 06:26:16;;;;;;;12.50;11.20;;;22.20;72.90;;;;;;5101851;28;20147;-83
2021/08/14 06:28:42;;;;;;;11.88;10.65;;;22.20;73.00;;;;;;5101967;28;20238;-82
2021/08/14 06:31:08;;;;;;;11.98;10.65;;;22.20;72.80;;;;;;5119464;28;20152;-81
2021/08/14 06:33:34;;;;;;;12.30;10.93;;;22.20;72.80;;;;;;5119146;28;20281;-82
2021/08/14 06:35:59;;;;;;;12.25;11.00;;;22.20;72.60;;;;;;5101656;28;20186;-82
2021/08/14 06:38:29;;;;;;;12.18;10.88;;;22.20;72.70;;;;;;5101053;28;20148;-82
2021/08/14 06:40:57;;;;;;;12.40;11.10;;;22.20;72.70;;;;;;5118063;28;20271;-82
2021/08/14 06:43:27;;;;;;;12.38;11.07;;;22.20;72.70;;;;;;5102943;28;20160;-83
2021/08/14 06:45:54;;;;;;;12.90;11.60;;;22.20;72.50;;;;;;5103735;28;20247;-81
2021/08/14 06:48:20;;;;;;;12.50;11.13;;;22.20;72.60;;;;;;5120132;28;20240;-81
2021/08/14 06:50:46;;;;;;;11.30;10.18;;;22.20;72.80;;;;;;5086739;28;20207;-81
2021/08/14 06:53:11;;;;;;;12.57;11.27;;;22.20;72.60;;;;;;5086320;28;20163;-81
2021/08/14 06:55:37;;;;;;;12.07;10.88;;;22.20;72.70;;;;;;5121228;28;20156;-80
2021/08/14 06:58:05;;;;;;;12.88;11.32;;;22.20;72.40;;;;;;5087059;28;20209;-81
2021/08/14 07:00:33;;;;;;;12.52;11.15;;;22.20;72.40;;;;;;5120228;28;20669;-80
2021/08/14 07:02:59;;;;;;;11.55;10.45;;;22.30;72.30;;;;;;5120391;28;20154;-81
2021/08/14 07:05:27;;;;;;;12.52;11.02;;;22.20;72.30;;;;;;5104170;28;20156;-80
2021/08/14 07:07:55;;;;;;;13.02;11.05;;;22.30;72.00;;;;;;5087334;28;20180;-80
2021/08/14 07:10:21;;;;;;;12.45;10.82;;;22.30;72.00;;;;;;5102589;28;20215;-80
2021/08/14 07:12:47;;;;;;;12.48;11.18;;;22.30;71.80;;;;;;5047290;28;20234;-82
2021/08/14 07:15:13;;;;;;;11.77;10.57;;;22.40;71.80;;;;;;5089764;28;20175;-81
2021/08/14 07:17:43;;;;;;;12.25;10.43;;;22.30;71.60;;;;;;5088821;28;20184;-84
2021/08/14 07:20:09;;;;;;;11.30;10.10;;;22.30;71.60;;;;;;5070668;28;20186;-81
2021/08/14 07:22:36;;;;;;;12.30;11.00;;;22.40;71.50;;;;;;5105474;28;20155;-82
2021/08/14 07:25:05;;;;;;;11.90;10.60;;;22.40;71.50;;;;;;5088139;28;20532;-81
2021/08/14 07:27:31;;;;;;;12.18;10.88;;;22.40;71.40;;;;;;5035044;28;20163;-81
2021/08/14 07:29:56;;;;;;;11.57;10.38;;;22.40;71.30;;;;;;5036169;28;20212;-81
2021/08/14 07:32:22;;;;;;;11.05;9.95;;;22.40;71.30;;;;;;5019275;28;20170;-81
2021/08/14 07:34:51;;;;;;;11.77;10.57;;;22.40;71.20;;;;;;5020227;28;20564;-81
2021/08/14 07:37:21;;;;;;;11.20;10.07;;;22.40;71.00;;;;;;5037371;28;20155;-80
2021/08/14 07:39:47;;;;;;;11.90;10.70;;;22.40;71.00;;;;;;5021440;28;20171;-81
2021/08/14 07:42:13;;;;;;;11.70;10.50;;;22.40;71.20;;;;;;5111373;28;20529;-81
2021/08/14 07:44:38;;;;;;;11.57;10.15;;;22.40;71.10;;;;;;5095148;28;20177;-81
2021/08/14 07:47:05;;;;;;;12.63;10.98;;;22.40;71.00;;;;;;5094356;28;20621;-81
2021/08/14 07:49:32;;;;;;;11.93;10.10;;;22.40;70.90;;;;;;5040722;28;20202;-82
2021/08/14 07:51:59;;;;;;;11.98;10.65;;;22.40;71.20;;;;;;5093115;28;20210;-81
2021/08/14 07:54:29;;;;;;;11.13;9.95;;;22.40;71.30;;;;;;5093282;28;20183;-82
2021/08/14 07:56:56;;;;;;;11.57;10.38;;;22.40;71.40;;;;;;5110832;28;20186;-80
2021/08/14 07:59:23;;;;;;;12.10;10.55;;;22.40;71.40;;;;;;5078114;28;20202;-82
2021/08/14 08:01:53;;;;;;;12.27;10.98;;;22.30;71.50;;;;;;5027073;28;20160;-80
2021/08/14 08:04:26;;;;;;;11.93;10.60;;;22.30;71.30;;;;;;5043024;28;20159;-81
2021/08/14 08:06:52;;;;;;;11.25;10.05;;;22.40;72.00;;;;;;5079216;28;20189;-80
2021/08/14 08:09:19;;;;;;;11.73;10.43;;;22.50;71.10;;;;;;5043462;28;20252;-81
2021/08/14 08:11:45;;;;;;;11.80;10.55;;;22.40;71.00;;;;;;5019124;28;20227;-81
2021/08/14 08:14:11;;;;;;;11.73;10.52;;;22.30;71.20;;;;;;5007323;28;20227;-81
2021/08/14 08:16:42;;;;;;;12.30;11.02;;;22.30;71.20;;;;;;5024206;28;20156;-82
2021/08/14 08:19:12;;;;;;;12.88;11.40;;;22.20;71.40;;;;;;5059404;28;20179;-80
2021/08/14 08:21:41;;;;;;;12.68;10.73;;;22.20;71.50;;;;;;5058283;28;20195;-81
2021/08/14 08:24:10;;;;;;;11.98;10.60;;;22.20;71.30;;;;;;5091153;28;20175;-81
2021/08/14 08:26:40;;;;;;;11.77;10.57;;;22.30;71.50;;;;;;5075506;28;20267;-80
2021/08/14 08:29:10;;;;;;;12.05;10.80;;;22.30;71.40;;;;;;5075431;28;20244;-80
2021/08/14 08:31:40;;;;;;;12.00;10.73;;;22.30;71.50;;;;;;5075730;28;20590;-80
2021/08/14 08:34:08;;;;;;;11.07;9.98;;;22.20;71.50;;;;;;5075994;28;20635;-80
2021/08/14 08:36:36;;;;;;;12.45;10.52;;;22.20;71.90;;;;;;5075574;28;20218;-80
2021/08/14 08:39:02;;;;;;;12.93;10.88;;;22.20;71.50;;;;;;5058922;28;20274;-80
2021/08/14 08:41:28;;;;;;;12.60;10.43;;;22.30;71.70;;;;;;5091835;28;20194;-80
2021/08/14 08:43:53;;;;;;;12.50;11.20;;;22.20;71.80;;;;;;5006158;28;20573;-80
2021/08/14 08:46:19;;;;;;;11.27;10.07;;;22.20;71.60;;;;;;5022541;28;20556;-80
2021/08/14 08:48:52;;;;;;;12.60;10.43;;;22.20;71.50;;;;;;5075129;28;20175;-80
2021/08/14 08:51:23;;;;;;;11.35;10.02;;;22.20;71.50;;;;;;5007466;28;20179;-80
2021/08/14 08:53:54;;;;;;;11.55;10.38;;;22.20;71.30;;;;;;5069303;28;20185;-81
2021/08/14 08:56:24;;;;;;;10.98;9.85;;;22.20;71.20;;;;;;5036684;28;20180;-81
2021/08/14 08:58:54;;;;;;;12.07;10.45;;;22.20;71.00;;;;;;4969255;28;20196;-80
2021/08/14 09:01:21;;;;;;;14.07;11.13;;;22.20;70.80;;;;;;4983719;28;20253;-80
2021/08/14 09:03:51;;;;;;;11.57;10.38;;;22.20;71.00;;;;;;5002859;28;20237;-82
2021/08/14 09:06:19;;;;;;;11.90;10.68;;;22.30;71.20;;;;;;5072016;28;20187;-80
2021/08/14 09:09:11;;;;;;;11.63;10.43;;;22.10;70.90;;;;;;5021709;28;20210;-80
2021/08/14 09:11:48;;;;;;;10.80;9.27;;;22.10;70.10;;;;;;5028276;28;20209;-81
2021/08/14 09:14:14;;;;;;;11.10;9.63;;;22.20;70.30;;;;;;5033688;27;20164;-81
2021/08/14 09:16:40;;;;;;;11.68;10.48;;;22.20;70.00;;;;;;5068900;28;20170;-81
2021/08/14 09:19:05;;;;;;;11.35;10.02;;;22.20;70.30;;;;;;5027757;27;20226;-80
2021/08/14 09:21:39;;;;;;;12.20;10.02;;;22.20;70.10;;;;;;5132622;27;20159;-79
2021/08/14 09:24:06;;;;;;;10.43;9.35;;;22.30;70.20;;;;;;5095871;28;20264;-80
2021/08/14 09:26:58;;;;;;;11.30;9.63;;;22.30;70.20;;;;;;5075343;27;20191;-80
2021/08/14 09:29:35;;;;;;;11.32;9.82;;;22.30;70.00;;;;;;5028261;28;20201;-80
2021/08/14 09:32:09;;;;;;;11.63;9.80;;;22.30;70.00;;;;;;5045077;28;20175;-80
2021/08/14 09:34:41;;;;;;;11.93;10.50;;;22.30;70.00;;;;;;5028795;28;20204;-80
2021/08/14 09:37:08;;;;;;;11.90;10.50;;;22.40;70.10;;;;;;4993813;28;20187;-80
2021/08/14 09:39:50;;;;;;;12.02;10.05;;;22.30;70.30;;;;;;5013724;28;20166;-80
2021/08/14 09:42:21;;;;;;;11.32;9.77;;;22.30;70.50;;;;;;5028347;28;20223;-81
2021/08/14 09:44:46;;;;;;;11.32;10.13;;;22.30;70.20;;;;;;4979761;28;20177;-81
2021/08/14 09:47:33;;;;;;;11.45;9.93;;;22.30;70.40;;;;;;5045143;28;20169;-79
2021/08/14 09:50:02;;;;;;;11.43;10.20;;;22.30;70.40;;;;;;5029762;28;20213;-79
2021/08/14 09:52:28;;;;;;;10.48;9.38;;;22.30;70.50;;;;;;5029468;28;20170;-79
2021/08/14 09:54:54;;;;;;;10.68;9.50;;;22.30;70.60;;;;;;5063566;28;20161;-80
2021/08/14 09:57:20;;;;;;;11.25;10.00;;;22.30;70.50;;;;;;5046584;28;20240;-79
2021/08/14 09:59:48;;;;;;;11.68;10.43;;;22.30;70.50;;;;;;5012672;28;20176;-80
2021/08/14 10:02:21;;;;;;;11.98;9.93;;;22.30;70.60;;;;;;5027887;28;20162;-80
2021/08/14 10:04:47;;;;;;;11.07;9.90;;;22.30;70.40;;;;;;5044116;28;20162;-80
2021/08/14 10:07:14;;;;;;;11.65;9.82;;;22.30;70.60;;;;;;5028715;28;20210;-80
2021/08/14 10:09:41;;;;;;;12.77;10.32;;;22.30;70.40;;;;;;5029022;28;20182;-80
2021/08/14 10:12:07;;;;;;;11.52;10.32;;;22.30;70.30;;;;;;5060871;28;20664;-79
2021/08/14 10:14:38;;;;;;;11.30;10.07;;;22.30;70.50;;;;;;5044828;28;20162;-80
2021/08/14 10:17:06;;;;;;;11.07;9.98;;;22.30;70.70;;;;;;5077389;28;20182;-79
2021/08/14 10:19:32;;;;;;;12.00;10.00;;;22.20;70.50;;;;;;5061676;28;20166;-79
2021/08/14 10:21:59;;;;;;;10.80;9.63;;;22.30;70.40;;;;;;5097209;28;20192;-79
2021/08/14 10:24:24;;;;;;;11.65;9.55;;;22.30;70.40;;;;;;5077744;28;20174;-80
2021/08/14 10:27:07;;;;;;;10.95;9.70;;;22.30;70.60;;;;;;5044223;28;20601;-79
2021/08/14 10:29:55;;;;;;;11.45;10.20;;;22.30;70.60;;;;;;5062606;28;20242;-79
2021/08/14 10:32:47;;;;;;;11.45;10.23;;;22.30;70.60;;;;;;5095406;28;20190;-79
2021/08/14 10:35:33;;;;;;;10.85;9.45;;;22.30;70.30;;;;;;5061803;28;20158;-79
2021/08/14 10:38:01;;;;;;;10.98;9.55;;;22.30;70.30;;;;;;5044125;28;20149;-80
2021/08/14 10:40:59;;;;;;;11.63;10.00;;;22.30;70.30;;;;;;5113269;28;20198;-79
2021/08/14 10:43:57;;;;;;;10.85;9.70;;;22.30;70.10;;;;;;5062788;28;20157;-80
2021/08/14 10:46:41;;;;;;;11.02;9.73;;;22.30;70.40;;;;;;5044729;28;20193;-79
2021/08/14 10:49:08;;;;;;;11.32;10.13;;;22.20;70.40;;;;;;5045321;28;20193;-79
2021/08/14 10:52:12;;;;;;;11.10;9.88;;;22.20;70.60;;;;;;5045186;28;20154;-79
2021/08/14 10:54:59;;;;;;;11.55;10.20;;;22.30;70.50;;;;;;5051297;28;20225;-79
2021/08/14 10:57:41;;;;;;;11.30;9.90;;;22.30;70.50;;;;;;5061378;28;20253;-79
2021/08/14 11:00:16;;;;;;;10.88;9.68;;;22.20;70.30;;;;;;5045200;28;20155;-80
2021/08/14 11:03:00;;;;;;;11.90;10.10;;;22.30;70.30;;;;;;5044673;28;20302;-79
2021/08/14 11:05:26;;;;;;;11.18;9.90;;;22.20;70.70;;;;;;5062200;28;20169;-80
2021/08/14 11:07:52;;;;;;;10.32;9.25;;;22.30;69.80;;;;;;5045110;28;20162;-79
2021/08/14 11:10:31;;;;;;;12.63;10.10;;;22.30;69.70;;;;;;5044941;28;20186;-79
2021/08/14 11:12:57;;;;;;;11.43;9.68;;;22.30;69.60;;;;;;5044986;28;20266;-79
2021/08/14 11:15:25;;;;;;;10.23;9.13;;;22.30;69.40;;;;;;5029070;28;20154;-79
2021/08/14 11:17:52;;;;;;;11.82;9.40;;;22.40;69.70;;;;;;5031608;28;20166;-81
2021/08/14 11:20:38;;;;;;;10.45;9.35;;;22.30;69.60;;;;;;5031568;28;20174;-79
2021/08/14 11:23:25;;;;;;;11.15;9.93;;;22.30;69.60;;;;;;5047742;28;20194;-79
2021/08/14 11:25:54;;;;;;;10.90;9.80;;;22.40;69.60;;;;;;5082477;28;20230;-79
2021/08/14 11:28:26;;;;;;;10.77;9.45;;;22.30;69.40;;;;;;5100711;28;20182;-79
2021/08/14 11:31:05;;;;;;;10.25;9.18;;;22.30;70.50;;;;;;5100512;28;20241;-79
2021/08/14 11:33:31;;;;;;;10.05;9.07;;;22.30;69.50;;;;;;5116735;28;20205;-79
2021/08/14 11:36:03;;;;;;;11.05;9.68;;;22.30;69.30;;;;;;5032011;28;20170;-79
2021/08/14 11:38:37;;;;;;;10.35;9.30;;;22.30;69.40;;;;;;5032320;28;20168;-79
2021/08/14 11:41:10;;;;;;;12.45;9.80;;;22.30;69.40;;;;;;5030909;28;20595;-80
2021/08/14 11:43:37;;;;;;;11.40;10.20;;;22.30;69.50;;;;;;5047478;28;20155;-79
2021/08/14 11:46:05;;;;;;;10.63;9.52;;;22.30;69.60;;;;;;5048066;28;20150;-79
2021/08/14 11:48:47;;;;;;;10.80;9.70;;;22.30;69.50;;;;;;5048073;28;20157;-79
2021/08/14 11:51:19;;;;;;;10.77;9.13;;;22.40;69.60;;;;;;5015300;28;20194;-80
2021/08/14 11:53:46;;;;;;;11.30;9.95;;;22.40;69.50;;;;;;5082960;28;20185;-79
2021/08/14 11:56:16;;;;;;;10.23;9.20;;;22.30;69.40;;;;;;5031913;28;20594;-79
2021/08/14 11:58:45;;;;;;;11.18;10.00;;;22.40;69.40;;;;;;5082776;28;20186;-79
2021/08/14 12:01:13;;;;;;;10.85;9.75;;;22.40;69.70;;;;;;5083514;28;20178;-79
2021/08/14 12:03:39;;;;;;;10.73;9.63;;;22.30;69.60;;;;;;5048334;28;20158;-79
2021/08/14 12:06:11;;;;;;;10.70;9.50;;;22.40;69.50;;;;;;5048062;28;20158;-79
2021/08/14 12:08:41;;;;;;;10.90;9.65;;;22.40;69.30;;;;;;5047616;28;20154;-79
2021/08/14 12:11:08;;;;;;;11.02;9.25;;;22.40;69.20;;;;;;5031331;28;20154;-79
2021/08/14 12:13:35;;;;;;;9.90;8.88;;;22.40;69.10;;;;;;5047735;28;20217;-79
2021/08/14 12:16:13;;;;;;;10.38;9.25;;;22.40;69.10;;;;;;5031300;28;20177;-79
2021/08/14 12:18:40;;;;;;;10.73;9.60;;;22.40;68.90;;;;;;5031287;28;20261;-79
2021/08/14 12:21:07;;;;;;;10.50;9.40;;;22.40;69.20;;;;;;5031215;28;20170;-79
2021/08/14 12:23:36;;;;;;;11.10;9.60;;;22.30;69.20;;;;;;5116540;28;20182;-79
2021/08/14 12:26:06;;;;;;;11.07;9.63;;;22.40;69.00;;;;;;5082137;28;20189;-79
2021/08/14 12:28:37;;;;;;;10.48;9.38;;;22.40;69.10;;;;;;5081546;28;20174;-79
2021/08/14 12:31:23;;;;;;;10.80;9.70;;;22.40;69.70;;;;;;5097418;28;20249;-79
2021/08/14 12:33:51;;;;;;;10.68;9.55;;;22.40;68.90;;;;;;5098413;28;20188;-79
2021/08/14 12:36:40;;;;;;;10.57;8.70;;;22.40;69.20;;;;;;5047270;28;20206;-80
2021/08/14 12:39:08;;;;;;;11.02;9.80;;;22.50;68.90;;;;;;5048845;28;20154;-79